sensor_id;sensor_type;location;lat;lon;timestamp;temperature;humidity
5834;DHT22;2943;48.012;10.968;2022-10-16T00:00:38;12.90;99.90
5834;DHT22;2943;48.012;10.968;2022-10-16T00:03:06;12.90;99.90
5834;DHT22;2943;48.012;10.968;2022-10-16T00:05:38;12.90;99.90
5834;DHT22;2943;48.012;10.968;2022-10-16T00:08:05;12.90;99.90
5834;DHT22;2943;48.012;10.968;2022-10-16T00:10:32;12.90;99.90
5834;DHT22;2943;48.012;10.968;2022-10-16T00:13:00;12.90;99.90
5834;DHT22;2943;48.012;10.968;2022-10-16T00:15:27;12.90;99.90
5834;DHT22;2943;48.012;10.968;2022-10-16T00:17:54;12.90;99.90
5834;DHT22;2943;48.012;10.968;2022-10-16T00:20:21;12.90;99.90
5834;DHT22;2943;48.012;10.968;2022-10-16T00:22:48;12.90;99.90
5834;DHT22;2943;48.012;10.968;2022-10-16T00:25:16;12.90;99.90
5834;DHT22;2943;48.012;10.968;2022-10-16T00:27:42;12.90;99.90
5834;DHT22;2943;48.012;10.968;2022-10-16T00:30:11;12.90;99.90
5834;DHT22;2943;48.012;10.968;2022-10-16T00:32:39;12.90;99.90
5834;DHT22;2943;48.012;10.968;2022-10-16T00:35:07;12.90;99.90
5834;DHT22;2943;48.012;10.968;2022-10-16T00:37:33;12.90;99.90
5834;DHT22;2943;48.012;10.968;2022-10-16T00:40:00;12.90;99.90
5834;DHT22;2943;48.012;10.968;2022-10-16T00:42:27;13.00;99.90
5834;DHT22;2943;48.012;10.968;2022-10-16T00:44:55;12.90;99.90
5834;DHT22;2943;48.012;10.968;2022-10-16T00:47:29;12.90;99.90
5834;DHT22;2943;48.012;10.968;2022-10-16T00:50:00;12.90;99.90
5834;DHT22;2943;48.012;10.968;2022-10-16T00:52:28;13.00;99.90
5834;DHT22;2943;48.012;10.968;2022-10-16T00:54:56;13.00;99.90
5834;DHT22;2943;48.012;10.968;2022-10-16T00:57:24;13.00;99.90
5834;DHT22;2943;48.012;10.968;2022-10-16T00:59:52;12.90;99.90
5834;DHT22;2943;48.012;10.968;2022-10-16T01:02:19;12.90;99.90
5834;DHT22;2943;48.012;10.968;2022-10-16T01:04:50;13.00;99.90
5834;DHT22;2943;48.012;10.968;2022-10-16T01:07:26;12.90;99.90
5834;DHT22;2943;48.012;10.968;2022-10-16T01:10:04;12.90;99.90
5834;DHT22;2943;48.012;10.968;2022-10-16T01:12:40;12.80;99.90
5834;DHT22;2943;48.012;10.968;2022-10-16T01:15:14;12.90;99.90
5834;DHT22;2943;48.012;10.968;2022-10-16T01:17:48;12.80;99.90
5834;DHT22;2943;48.012;10.968;2022-10-16T01:20:24;12.80;99.90
5834;DHT22;2943;48.012;10.968;2022-10-16T01:23:03;12.80;99.90
5834;DHT22;2943;48.012;10.968;2022-10-16T01:25:39;12.80;99.90
5834;DHT22;2943;48.012;10.968;2022-10-16T01:28:16;12.80;99.90
5834;DHT22;2943;48.012;10.968;2022-10-16T01:30:46;12.70;99.90
5834;DHT22;2943;48.012;10.968;2022-10-16T01:33:17;12.70;99.90
5834;DHT22;2943;48.012;10.968;2022-10-16T01:35:49;12.70;99.90
5834;DHT22;2943;48.012;10.968;2022-10-16T01:38:25;12.70;99.90
5834;DHT22;2943;48.012;10.968;2022-10-16T01:40:59;12.70;99.90
5834;DHT22;2943;48.012;10.968;2022-10-16T01:43:31;12.60;99.90
5834;DHT22;2943;48.012;10.968;2022-10-16T01:46:00;12.70;99.90
5834;DHT22;2943;48.012;10.968;2022-10-16T01:48:29;12.60;99.90
5834;DHT22;2943;48.012;10.968;2022-10-16T01:51:04;12.60;99.90
5834;DHT22;2943;48.012;10.968;2022-10-16T01:53:33;12.60;99.90
5834;DHT22;2943;48.012;10.968;2022-10-16T01:56:00;12.60;99.90
5834;DHT22;2943;48.012;10.968;2022-10-16T01:58:33;12.60;99.90
5834;DHT22;2943;48.012;10.968;2022-10-16T02:01:02;12.60;99.90
5834;DHT22;2943;48.012;10.968;2022-10-16T02:03:31;12.50;99.90
5834;DHT22;2943;48.012;10.968;2022-10-16T02:06:00;12.50;99.90
5834;DHT22;2943;48.012;10.968;2022-10-16T02:08:28;12.50;99.90
5834;DHT22;2943;48.012;10.968;2022-10-16T02:10:57;12.60;99.90
5834;DHT22;2943;48.012;10.968;2022-10-16T02:13:31;12.50;99.90
5834;DHT22;2943;48.012;10.968;2022-10-16T02:15:59;12.50;99.90
5834;DHT22;2943;48.012;10.968;2022-10-16T02:18:26;12.50;99.90
5834;DHT22;2943;48.012;10.968;2022-10-16T02:20:58;12.50;99.90
5834;DHT22;2943;48.012;10.968;2022-10-16T02:23:32;12.40;99.90
5834;DHT22;2943;48.012;10.968;2022-10-16T02:26:03;12.40;99.90
5834;DHT22;2943;48.012;10.968;2022-10-16T02:28:38;12.40;99.90
5834;DHT22;2943;48.012;10.968;2022-10-16T02:31:09;12.40;99.90
5834;DHT22;2943;48.012;10.968;2022-10-16T02:33:39;12.40;99.90
5834;DHT22;2943;48.012;10.968;2022-10-16T02:36:07;12.40;99.90
5834;DHT22;2943;48.012;10.968;2022-10-16T02:38:35;12.40;99.90
5834;DHT22;2943;48.012;10.968;2022-10-16T02:41:03;12.30;99.90
5834;DHT22;2943;48.012;10.968;2022-10-16T02:43:30;12.30;99.90
5834;DHT22;2943;48.012;10.968;2022-10-16T02:46:00;12.30;99.90
5834;DHT22;2943;48.012;10.968;2022-10-16T02:48:27;12.20;99.90
5834;DHT22;2943;48.012;10.968;2022-10-16T02:50:54;12.20;99.90
5834;DHT22;2943;48.012;10.968;2022-10-16T02:53:22;12.30;99.90
5834;DHT22;2943;48.012;10.968;2022-10-16T02:55:49;12.30;99.90
5834;DHT22;2943;48.012;10.968;2022-10-16T02:58:16;12.30;99.90
5834;DHT22;2943;48.012;10.968;2022-10-16T03:00:44;12.20;99.90
5834;DHT22;2943;48.012;10.968;2022-10-16T03:03:13;12.30;99.90
5834;DHT22;2943;48.012;10.968;2022-10-16T03:05:40;12.40;99.90
5834;DHT22;2943;48.012;10.968;2022-10-16T03:08:08;12.40;99.90
5834;DHT22;2943;48.012;10.968;2022-10-16T03:10:36;12.30;99.90
5834;DHT22;2943;48.012;10.968;2022-10-16T03:13:03;12.30;99.90
5834;DHT22;2943;48.012;10.968;2022-10-16T03:15:30;12.30;99.90
5834;DHT22;2943;48.012;10.968;2022-10-16T03:17:57;12.30;99.90
5834;DHT22;2943;48.012;10.968;2022-10-16T03:20:26;12.30;99.90
5834;DHT22;2943;48.012;10.968;2022-10-16T03:22:53;12.20;99.90
5834;DHT22;2943;48.012;10.968;2022-10-16T03:25:20;12.20;99.90
5834;DHT22;2943;48.012;10.968;2022-10-16T03:27:47;12.20;99.90
5834;DHT22;2943;48.012;10.968;2022-10-16T03:30:14;12.30;99.90
5834;DHT22;2943;48.012;10.968;2022-10-16T03:32:41;12.30;99.90
5834;DHT22;2943;48.012;10.968;2022-10-16T03:35:10;12.30;99.90
5834;DHT22;2943;48.012;10.968;2022-10-16T03:37:40;12.40;99.90
5834;DHT22;2943;48.012;10.968;2022-10-16T03:40:08;12.40;99.90
5834;DHT22;2943;48.012;10.968;2022-10-16T03:42:39;12.40;99.90
5834;DHT22;2943;48.012;10.968;2022-10-16T03:45:07;12.40;99.90
5834;DHT22;2943;48.012;10.968;2022-10-16T03:47:34;12.40;99.90
5834;DHT22;2943;48.012;10.968;2022-10-16T03:50:01;12.40;99.90
5834;DHT22;2943;48.012;10.968;2022-10-16T03:52:28;12.50;99.90
5834;DHT22;2943;48.012;10.968;2022-10-16T03:54:56;12.50;99.90
5834;DHT22;2943;48.012;10.968;2022-10-16T03:57:23;12.50;99.90
5834;DHT22;2943;48.012;10.968;2022-10-16T03:59:50;12.50;99.90
5834;DHT22;2943;48.012;10.968;2022-10-16T04:02:17;12.50;99.90
5834;DHT22;2943;48.012;10.968;2022-10-16T04:04:44;12.50;99.90
5834;DHT22;2943;48.012;10.968;2022-10-16T04:07:11;12.50;99.90
5834;DHT22;2943;48.012;10.968;2022-10-16T04:09:40;12.50;99.90
5834;DHT22;2943;48.012;10.968;2022-10-16T04:12:10;12.50;99.90
5834;DHT22;2943;48.012;10.968;2022-10-16T04:14:37;12.50;99.90
5834;DHT22;2943;48.012;10.968;2022-10-16T04:17:04;12.40;99.90
5834;DHT22;2943;48.012;10.968;2022-10-16T04:19:31;12.40;99.90
5834;DHT22;2943;48.012;10.968;2022-10-16T04:21:58;12.40;99.90
5834;DHT22;2943;48.012;10.968;2022-10-16T04:24:25;12.50;99.90
5834;DHT22;2943;48.012;10.968;2022-10-16T04:26:52;12.60;99.90
5834;DHT22;2943;48.012;10.968;2022-10-16T04:29:20;12.60;99.90
5834;DHT22;2943;48.012;10.968;2022-10-16T04:31:47;12.70;99.90
5834;DHT22;2943;48.012;10.968;2022-10-16T04:34:14;12.70;99.90
5834;DHT22;2943;48.012;10.968;2022-10-16T04:36:42;12.60;99.90
5834;DHT22;2943;48.012;10.968;2022-10-16T04:39:09;12.60;99.90
5834;DHT22;2943;48.012;10.968;2022-10-16T04:41:36;12.60;99.90
5834;DHT22;2943;48.012;10.968;2022-10-16T04:44:03;12.60;99.90
5834;DHT22;2943;48.012;10.968;2022-10-16T04:46:31;12.70;99.90
5834;DHT22;2943;48.012;10.968;2022-10-16T04:48:58;12.70;99.90
5834;DHT22;2943;48.012;10.968;2022-10-16T04:51:25;12.70;99.90
5834;DHT22;2943;48.012;10.968;2022-10-16T04:53:53;12.80;99.90
5834;DHT22;2943;48.012;10.968;2022-10-16T04:56:20;12.80;99.90
5834;DHT22;2943;48.012;10.968;2022-10-16T04:58:47;12.80;99.90
5834;DHT22;2943;48.012;10.968;2022-10-16T05:01:14;12.90;99.90
5834;DHT22;2943;48.012;10.968;2022-10-16T05:03:43;12.90;99.90
5834;DHT22;2943;48.012;10.968;2022-10-16T05:06:09;12.90;99.90
5834;DHT22;2943;48.012;10.968;2022-10-16T05:08:36;12.90;99.90
5834;DHT22;2943;48.012;10.968;2022-10-16T05:11:03;12.90;99.90
5834;DHT22;2943;48.012;10.968;2022-10-16T05:13:30;12.90;99.90
5834;DHT22;2943;48.012;10.968;2022-10-16T05:15:57;12.90;99.90
5834;DHT22;2943;48.012;10.968;2022-10-16T05:18:24;12.90;99.90
5834;DHT22;2943;48.012;10.968;2022-10-16T05:20:53;12.90;99.90
5834;DHT22;2943;48.012;10.968;2022-10-16T05:23:20;12.80;99.90
5834;DHT22;2943;48.012;10.968;2022-10-16T05:25:52;12.90;99.90
5834;DHT22;2943;48.012;10.968;2022-10-16T05:28:20;12.90;99.90
5834;DHT22;2943;48.012;10.968;2022-10-16T05:30:47;12.90;99.90
5834;DHT22;2943;48.012;10.968;2022-10-16T05:33:14;12.90;99.90
5834;DHT22;2943;48.012;10.968;2022-10-16T05:35:40;12.90;99.90
5834;DHT22;2943;48.012;10.968;2022-10-16T05:38:09;12.90;99.90
5834;DHT22;2943;48.012;10.968;2022-10-16T05:40:35;13.00;99.90
5834;DHT22;2943;48.012;10.968;2022-10-16T05:43:03;13.00;99.90
5834;DHT22;2943;48.012;10.968;2022-10-16T05:45:30;13.00;99.90
5834;DHT22;2943;48.012;10.968;2022-10-16T05:47:56;13.00;99.90
5834;DHT22;2943;48.012;10.968;2022-10-16T05:50:23;13.00;99.90
5834;DHT22;2943;48.012;10.968;2022-10-16T05:52:50;13.00;99.90
5834;DHT22;2943;48.012;10.968;2022-10-16T05:55:18;13.10;99.90
5834;DHT22;2943;48.012;10.968;2022-10-16T05:57:45;13.10;99.90
5834;DHT22;2943;48.012;10.968;2022-10-16T06:00:12;13.10;99.90
5834;DHT22;2943;48.012;10.968;2022-10-16T06:02:39;13.10;99.90
5834;DHT22;2943;48.012;10.968;2022-10-16T06:05:06;13.10;99.90
5834;DHT22;2943;48.012;10.968;2022-10-16T06:07:35;13.10;99.90
5834;DHT22;2943;48.012;10.968;2022-10-16T06:10:03;13.10;99.90
5834;DHT22;2943;48.012;10.968;2022-10-16T06:12:31;13.10;99.90
5834;DHT22;2943;48.012;10.968;2022-10-16T06:14:58;13.10;99.90
5834;DHT22;2943;48.012;10.968;2022-10-16T06:17:25;13.10;99.90
5834;DHT22;2943;48.012;10.968;2022-10-16T06:19:52;13.10;99.90
5834;DHT22;2943;48.012;10.968;2022-10-16T06:22:19;13.10;99.90
5834;DHT22;2943;48.012;10.968;2022-10-16T06:24:45;13.10;99.90
5834;DHT22;2943;48.012;10.968;2022-10-16T06:27:13;13.00;99.90
5834;DHT22;2943;48.012;10.968;2022-10-16T06:29:41;12.90;99.90
5834;DHT22;2943;48.012;10.968;2022-10-16T06:32:08;12.90;99.90
5834;DHT22;2943;48.012;10.968;2022-10-16T06:34:35;12.90;99.90
5834;DHT22;2943;48.012;10.968;2022-10-16T06:37:02;13.00;99.90
5834;DHT22;2943;48.012;10.968;2022-10-16T06:39:28;12.90;99.90
5834;DHT22;2943;48.012;10.968;2022-10-16T06:41:55;12.90;99.90
5834;DHT22;2943;48.012;10.968;2022-10-16T06:44:22;12.90;99.90
5834;DHT22;2943;48.012;10.968;2022-10-16T06:46:50;12.90;99.90
5834;DHT22;2943;48.012;10.968;2022-10-16T06:49:17;13.00;99.90
5834;DHT22;2943;48.012;10.968;2022-10-16T06:51:47;12.90;99.90
5834;DHT22;2943;48.012;10.968;2022-10-16T06:54:15;12.90;99.90
5834;DHT22;2943;48.012;10.968;2022-10-16T06:56:43;12.90;99.90
5834;DHT22;2943;48.012;10.968;2022-10-16T06:59:10;12.90;99.90
5834;DHT22;2943;48.012;10.968;2022-10-16T07:01:37;12.90;99.90
5834;DHT22;2943;48.012;10.968;2022-10-16T07:04:05;12.90;99.90
5834;DHT22;2943;48.012;10.968;2022-10-16T07:06:33;12.90;99.90
5834;DHT22;2943;48.012;10.968;2022-10-16T07:09:02;13.00;99.90
5834;DHT22;2943;48.012;10.968;2022-10-16T07:11:29;13.00;99.90
5834;DHT22;2943;48.012;10.968;2022-10-16T07:13:56;13.10;99.90
5834;DHT22;2943;48.012;10.968;2022-10-16T07:16:24;13.00;99.90
5834;DHT22;2943;48.012;10.968;2022-10-16T07:18:52;13.10;99.90
5834;DHT22;2943;48.012;10.968;2022-10-16T07:21:25;13.10;99.90
5834;DHT22;2943;48.012;10.968;2022-10-16T07:23:54;13.10;99.90
5834;DHT22;2943;48.012;10.968;2022-10-16T07:26:21;13.20;99.90
5834;DHT22;2943;48.012;10.968;2022-10-16T07:28:48;13.20;99.90
5834;DHT22;2943;48.012;10.968;2022-10-16T07:31:17;13.30;99.90
5834;DHT22;2943;48.012;10.968;2022-10-16T07:33:44;13.40;99.90
5834;DHT22;2943;48.012;10.968;2022-10-16T07:36:13;13.40;99.90
5834;DHT22;2943;48.012;10.968;2022-10-16T07:38:41;13.50;99.90
5834;DHT22;2943;48.012;10.968;2022-10-16T07:41:11;13.60;99.90
5834;DHT22;2943;48.012;10.968;2022-10-16T07:43:38;13.70;99.90
5834;DHT22;2943;48.012;10.968;2022-10-16T07:46:05;13.70;99.90
5834;DHT22;2943;48.012;10.968;2022-10-16T07:48:33;13.80;99.90
5834;DHT22;2943;48.012;10.968;2022-10-16T07:51:02;13.80;99.90
5834;DHT22;2943;48.012;10.968;2022-10-16T07:53:29;13.90;99.90
5834;DHT22;2943;48.012;10.968;2022-10-16T07:55:59;14.00;99.90
5834;DHT22;2943;48.012;10.968;2022-10-16T07:58:26;14.10;99.90
5834;DHT22;2943;48.012;10.968;2022-10-16T08:00:53;14.20;99.90
5834;DHT22;2943;48.012;10.968;2022-10-16T08:03:20;14.20;99.90
5834;DHT22;2943;48.012;10.968;2022-10-16T08:05:47;14.30;99.90
5834;DHT22;2943;48.012;10.968;2022-10-16T08:08:15;14.30;99.90
5834;DHT22;2943;48.012;10.968;2022-10-16T08:10:42;14.30;99.90
5834;DHT22;2943;48.012;10.968;2022-10-16T08:13:10;14.40;99.90
5834;DHT22;2943;48.012;10.968;2022-10-16T08:15:40;14.40;99.90
5834;DHT22;2943;48.012;10.968;2022-10-16T08:18:07;14.50;99.90
5834;DHT22;2943;48.012;10.968;2022-10-16T08:20:34;14.50;99.90
5834;DHT22;2943;48.012;10.968;2022-10-16T08:23:01;14.60;99.90
5834;DHT22;2943;48.012;10.968;2022-10-16T08:25:28;14.70;99.90
5834;DHT22;2943;48.012;10.968;2022-10-16T08:27:55;14.70;99.90
5834;DHT22;2943;48.012;10.968;2022-10-16T08:30:24;14.90;99.90
5834;DHT22;2943;48.012;10.968;2022-10-16T08:32:51;14.90;99.90
5834;DHT22;2943;48.012;10.968;2022-10-16T08:35:18;15.00;99.90
5834;DHT22;2943;48.012;10.968;2022-10-16T08:37:45;15.10;99.90
5834;DHT22;2943;48.012;10.968;2022-10-16T08:40:17;15.20;99.90
5834;DHT22;2943;48.012;10.968;2022-10-16T08:43:01;15.30;99.90
5834;DHT22;2943;48.012;10.968;2022-10-16T08:45:38;15.40;99.90
5834;DHT22;2943;48.012;10.968;2022-10-16T08:48:17;15.50;99.90
5834;DHT22;2943;48.012;10.968;2022-10-16T08:50:45;15.60;99.90
5834;DHT22;2943;48.012;10.968;2022-10-16T08:53:18;15.70;99.90
5834;DHT22;2943;48.012;10.968;2022-10-16T08:55:48;15.80;99.90
5834;DHT22;2943;48.012;10.968;2022-10-16T08:58:18;16.00;99.90
5834;DHT22;2943;48.012;10.968;2022-10-16T09:00:48;16.10;99.90
5834;DHT22;2943;48.012;10.968;2022-10-16T09:03:26;16.10;99.90
5834;DHT22;2943;48.012;10.968;2022-10-16T09:06:20;16.30;99.90
5834;DHT22;2943;48.012;10.968;2022-10-16T09:09:04;16.40;99.90
5834;DHT22;2943;48.012;10.968;2022-10-16T09:11:41;16.50;99.90
5834;DHT22;2943;48.012;10.968;2022-10-16T09:14:22;16.70;99.90
5834;DHT22;2943;48.012;10.968;2022-10-16T09:16:56;16.70;99.90
5834;DHT22;2943;48.012;10.968;2022-10-16T09:19:31;16.80;99.90
5834;DHT22;2943;48.012;10.968;2022-10-16T09:21:59;17.00;99.90
5834;DHT22;2943;48.012;10.968;2022-10-16T09:24:30;17.10;99.90
5834;DHT22;2943;48.012;10.968;2022-10-16T09:26:57;17.20;99.90
5834;DHT22;2943;48.012;10.968;2022-10-16T09:29:23;17.30;99.90
5834;DHT22;2943;48.012;10.968;2022-10-16T09:31:53;17.40;99.90
5834;DHT22;2943;48.012;10.968;2022-10-16T09:34:25;17.50;99.90
5834;DHT22;2943;48.012;10.968;2022-10-16T09:36:54;17.60;99.90
5834;DHT22;2943;48.012;10.968;2022-10-16T09:39:22;17.70;99.90
5834;DHT22;2943;48.012;10.968;2022-10-16T09:41:49;17.80;99.90
5834;DHT22;2943;48.012;10.968;2022-10-16T09:44:19;17.90;99.90
5834;DHT22;2943;48.012;10.968;2022-10-16T09:46:47;18.00;99.90
5834;DHT22;2943;48.012;10.968;2022-10-16T09:49:24;18.10;99.90
5834;DHT22;2943;48.012;10.968;2022-10-16T09:52:02;18.20;99.90
5834;DHT22;2943;48.012;10.968;2022-10-16T09:54:29;18.40;99.90
5834;DHT22;2943;48.012;10.968;2022-10-16T09:57:05;18.60;99.90
5834;DHT22;2943;48.012;10.968;2022-10-16T09:59:32;18.70;99.90
5834;DHT22;2943;48.012;10.968;2022-10-16T10:02:02;18.90;99.90
5834;DHT22;2943;48.012;10.968;2022-10-16T10:04:40;19.00;99.90
5834;DHT22;2943;48.012;10.968;2022-10-16T10:07:17;19.10;99.90
5834;DHT22;2943;48.012;10.968;2022-10-16T10:09:45;19.20;99.90
5834;DHT22;2943;48.012;10.968;2022-10-16T10:12:21;19.30;99.90
5834;DHT22;2943;48.012;10.968;2022-10-16T10:14:49;19.40;99.90
5834;DHT22;2943;48.012;10.968;2022-10-16T10:17:20;19.40;99.90
5834;DHT22;2943;48.012;10.968;2022-10-16T10:19:51;19.50;99.90
5834;DHT22;2943;48.012;10.968;2022-10-16T10:22:23;19.50;99.90
5834;DHT22;2943;48.012;10.968;2022-10-16T10:25:16;19.60;99.90
5834;DHT22;2943;48.012;10.968;2022-10-16T10:27:53;19.70;99.90
5834;DHT22;2943;48.012;10.968;2022-10-16T10:30:29;19.80;99.90
5834;DHT22;2943;48.012;10.968;2022-10-16T10:33:09;19.80;99.90
5834;DHT22;2943;48.012;10.968;2022-10-16T10:35:44;19.80;99.90
5834;DHT22;2943;48.012;10.968;2022-10-16T10:38:22;19.90;99.90
5834;DHT22;2943;48.012;10.968;2022-10-16T10:40:58;19.90;99.90
5834;DHT22;2943;48.012;10.968;2022-10-16T10:43:43;19.90;99.90
5834;DHT22;2943;48.012;10.968;2022-10-16T10:46:18;19.90;99.90
5834;DHT22;2943;48.012;10.968;2022-10-16T10:48:58;19.90;99.90
5834;DHT22;2943;48.012;10.968;2022-10-16T10:51:32;20.00;99.90
5834;DHT22;2943;48.012;10.968;2022-10-16T10:54:10;20.00;99.90
5834;DHT22;2943;48.012;10.968;2022-10-16T10:56:45;20.10;99.90
5834;DHT22;2943;48.012;10.968;2022-10-16T10:59:48;20.20;99.90
5834;DHT22;2943;48.012;10.968;2022-10-16T11:02:22;20.30;99.90
5834;DHT22;2943;48.012;10.968;2022-10-16T11:05:35;20.40;99.90
5834;DHT22;2943;48.012;10.968;2022-10-16T11:08:09;20.60;99.90
5834;DHT22;2943;48.012;10.968;2022-10-16T11:10:44;20.70;99.90
5834;DHT22;2943;48.012;10.968;2022-10-16T11:13:24;20.80;99.90
5834;DHT22;2943;48.012;10.968;2022-10-16T11:15:58;20.90;99.90
5834;DHT22;2943;48.012;10.968;2022-10-16T11:18:32;21.00;99.90
5834;DHT22;2943;48.012;10.968;2022-10-16T11:21:04;21.10;99.90
5834;DHT22;2943;48.012;10.968;2022-10-16T11:23:37;21.20;99.90
5834;DHT22;2943;48.012;10.968;2022-10-16T11:26:11;21.20;99.90
5834;DHT22;2943;48.012;10.968;2022-10-16T11:28:45;21.20;99.90
5834;DHT22;2943;48.012;10.968;2022-10-16T11:31:17;21.30;99.90
5834;DHT22;2943;48.012;10.968;2022-10-16T11:33:49;21.30;99.90
5834;DHT22;2943;48.012;10.968;2022-10-16T11:36:21;21.40;99.90
5834;DHT22;2943;48.012;10.968;2022-10-16T11:38:55;21.40;99.90
5834;DHT22;2943;48.012;10.968;2022-10-16T11:41:28;21.50;99.90
5834;DHT22;2943;48.012;10.968;2022-10-16T11:44:14;21.50;99.90
5834;DHT22;2943;48.012;10.968;2022-10-16T11:46:48;21.50;99.90
5834;DHT22;2943;48.012;10.968;2022-10-16T11:49:20;21.60;99.90
5834;DHT22;2943;48.012;10.968;2022-10-16T11:51:54;21.60;99.90
5834;DHT22;2943;48.012;10.968;2022-10-16T11:54:31;21.70;99.90
5834;DHT22;2943;48.012;10.968;2022-10-16T11:57:02;21.70;99.90
5834;DHT22;2943;48.012;10.968;2022-10-16T11:59:35;21.70;99.90
5834;DHT22;2943;48.012;10.968;2022-10-16T12:02:27;21.70;99.90
5834;DHT22;2943;48.012;10.968;2022-10-16T12:05:06;21.70;99.90
5834;DHT22;2943;48.012;10.968;2022-10-16T12:07:40;21.70;99.90
5834;DHT22;2943;48.012;10.968;2022-10-16T12:10:19;21.70;99.90
5834;DHT22;2943;48.012;10.968;2022-10-16T12:12:46;21.80;99.90
5834;DHT22;2943;48.012;10.968;2022-10-16T12:15:23;21.70;99.90
5834;DHT22;2943;48.012;10.968;2022-10-16T12:17:51;21.70;99.90
5834;DHT22;2943;48.012;10.968;2022-10-16T12:20:29;21.70;99.90
5834;DHT22;2943;48.012;10.968;2022-10-16T12:23:00;21.70;99.90
5834;DHT22;2943;48.012;10.968;2022-10-16T12:25:31;21.80;99.90
5834;DHT22;2943;48.012;10.968;2022-10-16T12:28:03;21.80;99.90
5834;DHT22;2943;48.012;10.968;2022-10-16T12:30:33;21.80;99.90
5834;DHT22;2943;48.012;10.968;2022-10-16T12:33:02;21.80;99.90
5834;DHT22;2943;48.012;10.968;2022-10-16T12:35:32;21.80;99.90
5834;DHT22;2943;48.012;10.968;2022-10-16T12:38:16;21.80;99.90
5834;DHT22;2943;48.012;10.968;2022-10-16T12:40:47;21.80;99.90
5834;DHT22;2943;48.012;10.968;2022-10-16T12:43:40;21.80;99.90
5834;DHT22;2943;48.012;10.968;2022-10-16T12:46:26;21.80;99.90
5834;DHT22;2943;48.012;10.968;2022-10-16T12:49:07;21.80;99.90
5834;DHT22;2943;48.012;10.968;2022-10-16T12:51:44;21.80;99.90
5834;DHT22;2943;48.012;10.968;2022-10-16T12:54:13;21.80;99.90
5834;DHT22;2943;48.012;10.968;2022-10-16T12:56:51;21.80;99.90
5834;DHT22;2943;48.012;10.968;2022-10-16T12:59:28;21.80;99.90
5834;DHT22;2943;48.012;10.968;2022-10-16T13:02:15;21.80;99.90
5834;DHT22;2943;48.012;10.968;2022-10-16T13:05:05;21.80;99.90
5834;DHT22;2943;48.012;10.968;2022-10-16T13:07:55;21.80;99.90
5834;DHT22;2943;48.012;10.968;2022-10-16T13:10:28;21.80;99.90
5834;DHT22;2943;48.012;10.968;2022-10-16T13:13:13;21.80;99.90
5834;DHT22;2943;48.012;10.968;2022-10-16T13:16:05;21.80;99.90
5834;DHT22;2943;48.012;10.968;2022-10-16T13:18:43;21.80;99.90
5834;DHT22;2943;48.012;10.968;2022-10-16T13:21:23;21.90;99.90
5834;DHT22;2943;48.012;10.968;2022-10-16T13:23:55;21.90;99.90
5834;DHT22;2943;48.012;10.968;2022-10-16T13:26:33;21.90;99.90
5834;DHT22;2943;48.012;10.968;2022-10-16T13:29:04;21.80;99.90
5834;DHT22;2943;48.012;10.968;2022-10-16T13:31:32;21.80;99.90
5834;DHT22;2943;48.012;10.968;2022-10-16T13:34:00;21.80;99.90
5834;DHT22;2943;48.012;10.968;2022-10-16T13:36:29;21.90;99.90
5834;DHT22;2943;48.012;10.968;2022-10-16T13:39:06;21.90;99.90
5834;DHT22;2943;48.012;10.968;2022-10-16T13:41:34;21.90;99.90
5834;DHT22;2943;48.012;10.968;2022-10-16T13:44:01;21.90;99.90
5834;DHT22;2943;48.012;10.968;2022-10-16T13:46:30;21.90;99.90
5834;DHT22;2943;48.012;10.968;2022-10-16T13:49:01;21.90;99.90
5834;DHT22;2943;48.012;10.968;2022-10-16T13:51:30;21.90;99.90
5834;DHT22;2943;48.012;10.968;2022-10-16T13:53:58;21.90;99.90
5834;DHT22;2943;48.012;10.968;2022-10-16T13:56:27;21.90;99.90
5834;DHT22;2943;48.012;10.968;2022-10-16T13:59:01;21.90;99.90
5834;DHT22;2943;48.012;10.968;2022-10-16T14:01:31;21.90;99.90
5834;DHT22;2943;48.012;10.968;2022-10-16T14:04:02;21.80;99.90
5834;DHT22;2943;48.012;10.968;2022-10-16T14:06:31;21.80;99.90
5834;DHT22;2943;48.012;10.968;2022-10-16T14:09:01;21.80;99.90
5834;DHT22;2943;48.012;10.968;2022-10-16T14:11:29;21.80;99.90
5834;DHT22;2943;48.012;10.968;2022-10-16T14:13:56;21.80;99.90
5834;DHT22;2943;48.012;10.968;2022-10-16T14:16:25;21.80;99.90
5834;DHT22;2943;48.012;10.968;2022-10-16T14:18:58;21.80;99.90
5834;DHT22;2943;48.012;10.968;2022-10-16T14:21:26;21.80;99.90
5834;DHT22;2943;48.012;10.968;2022-10-16T14:23:54;21.80;99.90
5834;DHT22;2943;48.012;10.968;2022-10-16T14:26:23;21.70;99.90
5834;DHT22;2943;48.012;10.968;2022-10-16T14:29:10;21.70;99.90
5834;DHT22;2943;48.012;10.968;2022-10-16T14:31:37;21.70;99.90
5834;DHT22;2943;48.012;10.968;2022-10-16T14:34:25;21.70;99.90
5834;DHT22;2943;48.012;10.968;2022-10-16T14:36:53;21.70;99.90
5834;DHT22;2943;48.012;10.968;2022-10-16T14:39:21;21.70;99.90
5834;DHT22;2943;48.012;10.968;2022-10-16T14:41:50;21.70;99.90
5834;DHT22;2943;48.012;10.968;2022-10-16T14:44:18;21.70;99.90
5834;DHT22;2943;48.012;10.968;2022-10-16T14:46:46;21.70;99.90
5834;DHT22;2943;48.012;10.968;2022-10-16T14:49:16;21.70;99.90
5834;DHT22;2943;48.012;10.968;2022-10-16T14:51:46;21.70;99.90
5834;DHT22;2943;48.012;10.968;2022-10-16T14:54:14;21.70;99.90
5834;DHT22;2943;48.012;10.968;2022-10-16T14:56:46;21.60;99.90
5834;DHT22;2943;48.012;10.968;2022-10-16T14:59:17;21.60;99.90
5834;DHT22;2943;48.012;10.968;2022-10-16T15:01:44;21.60;99.90
5834;DHT22;2943;48.012;10.968;2022-10-16T15:04:12;21.60;99.90
5834;DHT22;2943;48.012;10.968;2022-10-16T15:06:39;21.60;99.90
5834;DHT22;2943;48.012;10.968;2022-10-16T15:09:08;21.50;99.90
5834;DHT22;2943;48.012;10.968;2022-10-16T15:11:35;21.50;99.90
5834;DHT22;2943;48.012;10.968;2022-10-16T15:14:02;21.50;99.90
5834;DHT22;2943;48.012;10.968;2022-10-16T15:16:30;21.50;99.90
5834;DHT22;2943;48.012;10.968;2022-10-16T15:18:57;21.50;99.90
5834;DHT22;2943;48.012;10.968;2022-10-16T15:21:26;21.50;99.90
5834;DHT22;2943;48.012;10.968;2022-10-16T15:23:54;21.40;99.90
5834;DHT22;2943;48.012;10.968;2022-10-16T15:26:23;21.50;99.90
5834;DHT22;2943;48.012;10.968;2022-10-16T15:28:50;21.40;99.90
5834;DHT22;2943;48.012;10.968;2022-10-16T15:31:17;21.40;99.90
5834;DHT22;2943;48.012;10.968;2022-10-16T15:33:45;21.30;99.90
5834;DHT22;2943;48.012;10.968;2022-10-16T15:36:24;21.20;99.90
5834;DHT22;2943;48.012;10.968;2022-10-16T15:38:52;21.10;99.90
5834;DHT22;2943;48.012;10.968;2022-10-16T15:41:19;21.10;99.90
5834;DHT22;2943;48.012;10.968;2022-10-16T15:43:49;21.00;99.90
5834;DHT22;2943;48.012;10.968;2022-10-16T15:46:19;20.90;99.90
5834;DHT22;2943;48.012;10.968;2022-10-16T15:48:47;20.90;99.90
5834;DHT22;2943;48.012;10.968;2022-10-16T15:51:14;20.80;99.90
5834;DHT22;2943;48.012;10.968;2022-10-16T15:53:41;20.70;99.90
5834;DHT22;2943;48.012;10.968;2022-10-16T15:56:10;20.60;99.90
5834;DHT22;2943;48.012;10.968;2022-10-16T15:58:37;20.60;99.90
5834;DHT22;2943;48.012;10.968;2022-10-16T16:01:06;20.50;99.90
5834;DHT22;2943;48.012;10.968;2022-10-16T16:03:35;20.50;99.90
5834;DHT22;2943;48.012;10.968;2022-10-16T16:06:06;20.40;99.90